Time;durP1;ratioP1;P1;durP2;ratioP2;P2;SDS_P1;SDS_P2;PMS_P1;PMS_P2;Temp;Humidity;BMP_temperature;BMP_pressure;BME280_temperature;BME280_humidity;BME280_pressure;Samples;Min_cycle;Max_cycle;Signal;HPM_P1;HPM_P2
2021/08/02 00:00:03;;;;;;;5.40;3.80;;;;;;;12.35;100.00;95811.31;1024060;28;20031;-51
2021/08/02 00:00:38;;;;;;;7.95;3.65;;;;;;;12.34;100.00;95809.66;1028029;28;20658;-52
2021/08/02 00:01:10;;;;;;;6.03;3.80;;;;;;;12.34;100.00;95809.66;1027932;28;20425;-51
2021/08/02 00:01:45;;;;;;;11.18;4.18;;;;;;;12.34;100.00;95813.09;1020029;29;20050;-50
2021/08/02 00:02:27;;;;;;;5.85;3.72;;;;;;;12.35;100.00;95812.16;1016145;29;20084;-50
2021/08/02 00:03:04;;;;;;;7.43;3.70;;;;;;;12.35;100.00;95814.78;1015906;29;20051;-50
2021/08/02 00:03:49;;;;;;;6.82;4.00;;;;;;;12.35;100.00;95811.31;1018724;29;20438;-51
2021/08/02 00:04:22;;;;;;;11.05;4.22;;;;;;;12.35;100.00;95821.81;1024032;29;20058;-51
2021/08/02 00:04:57;;;;;;;7.55;4.18;;;;;;;12.35;100.00;95817.41;1026371;28;20034;-52
2021/08/02 00:05:27;;;;;;;7.43;3.80;;;;;;;12.39;100.00;95812.75;1019973;29;20024;-52
2021/08/02 00:05:58;;;;;;;8.40;3.70;;;;;;;12.42;100.00;95810.69;1020129;28;20110;-51
2021/08/02 00:06:48;;;;;;;6.32;3.70;;;;;;;12.39;100.00;95803.06;1027984;28;20015;-50
2021/08/02 00:07:21;;;;;;;6.97;3.67;;;;;;;12.40;100.00;95804.72;1028210;28;20018;-51
2021/08/02 00:08:00;;;;;;;7.20;3.90;;;;;;;12.44;100.00;95798.28;1031059;28;20037;-51
2021/08/02 00:08:31;;;;;;;6.47;4.03;;;;;;;12.45;100.00;95802.56;1031931;28;20056;-50
2021/08/02 00:09:05;;;;;;;8.35;3.80;;;;;;;12.48;100.00;95798.88;1027995;28;20106;-51
2021/08/02 00:09:37;;;;;;;6.38;3.60;;;;;;;12.48;100.00;95803.28;1022129;29;20120;-51
2021/08/02 00:10:12;;;;;;;12.32;3.85;;;;;;;12.46;100.00;95808.66;1016690;29;20072;-51
2021/08/02 00:10:43;;;;;;;11.95;4.20;;;;;;;12.45;100.00;95802.56;1021394;29;20020;-51
2021/08/02 00:11:14;;;;;;;8.95;3.92;;;;;;;12.45;100.00;95796.50;1023730;29;20066;-51
2021/08/02 00:11:51;;;;;;;7.40;3.72;;;;;;;12.48;100.00;95798.88;1027994;28;20026;-50
2021/08/02 00:12:26;;;;;;;5.55;3.90;;;;;;;12.48;100.00;95798.88;1023962;29;20106;-51
2021/08/02 00:13:01;;;;;;;6.32;3.60;;;;;;;12.51;100.00;95793.34;1027715;28;20105;-50
2021/08/02 00:13:32;;;;;;;8.35;3.55;;;;;;;12.56;100.00;95793.84;1021686;29;20078;-51
2021/08/02 00:14:05;;;;;;;9.63;4.07;;;;;;;12.53;100.00;95801.94;1021621;29;20015;-52
2021/08/02 00:14:36;;;;;;;9.40;3.83;;;;;;;12.50;100.00;95798.72;1025363;28;20034;-52
2021/08/02 00:15:08;;;;;;;6.88;3.75;;;;;;;12.55;100.00;95796.56;1028342;28;20027;-52
2021/08/02 00:15:39;;;;;;;7.07;3.28;;;;;;;12.55;100.00;95796.56;1032012;28;20230;-51
2021/08/02 00:16:10;;;;;;;6.30;3.95;;;;;;;12.59;100.00;95793.59;1028073;28;20527;-51
2021/08/02 00:16:40;;;;;;;7.85;3.58;;;;;;;12.62;100.00;95793.31;1020177;29;20020;-51
2021/08/02 00:17:11;;;;;;;6.82;3.75;;;;;;;12.66;100.00;95799.16;1020124;29;20050;-52
2021/08/02 00:17:42;;;;;;;6.55;3.53;;;;;;;12.62;100.00;95790.69;1016173;29;20055;-51
2021/08/02 00:18:13;;;;;;;7.53;4.03;;;;;;;12.64;100.00;95798.47;1020377;28;20047;-51
2021/08/02 00:18:43;;;;;;;5.78;3.80;;;;;;;12.64;100.00;95795.84;1027927;28;20026;-52
2021/08/02 00:19:14;;;;;;;6.63;3.58;;;;;;;12.68;100.00;95786.75;1032085;28;20029;-51
2021/08/02 00:19:44;;;;;;;7.47;3.58;;;;;;;12.69;100.00;95793.69;1036133;28;20021;-51
2021/08/02 00:20:18;;;;;;;8.85;3.67;;;;;;;12.68;100.00;95799.88;1028106;28;20049;-52
2021/08/02 00:20:49;;;;;;;7.07;3.63;;;;;;;12.61;100.00;95793.44;1027704;28;20093;-52
2021/08/02 00:21:20;;;;;;;8.75;4.05;;;;;;;12.63;100.00;95800.28;1023826;29;20070;-52
2021/08/02 00:21:51;;;;;;;7.93;4.00;;;;;;;12.63;100.00;95799.41;1023976;29;20026;-50
2021/08/02 00:22:21;;;;;;;5.22;3.47;;;;;;;12.57;100.00;95792.84;1027879;28;20027;-52
2021/08/02 00:22:52;;;;;;;7.63;3.35;;;;;;;12.61;100.00;95796.06;1023999;28;20058;-52
2021/08/02 00:23:25;;;;;;;6.10;3.47;;;;;;;12.51;100.00;95779.41;1019886;29;20023;-52
2021/08/02 00:23:56;;;;;;;6.85;3.78;;;;;;;12.68;100.00;95799.06;1019943;29;20020;-51
2021/08/02 00:24:26;;;;;;;8.93;3.90;;;;;;;12.63;100.00;95797.63;1025019;28;20038;-52
2021/08/02 00:24:57;;;;;;;7.57;3.67;;;;;;;12.70;100.00;95792.69;1024113;28;20078;-50
2021/08/02 00:25:28;;;;;;;8.95;3.92;;;;;;;12.68;100.00;95792.00;1024155;28;20102;-51
2021/08/02 00:26:00;;;;;;;6.13;4.30;;;;;;;12.69;100.00;95798.94;1023904;29;20030;-51
2021/08/02 00:26:31;;;;;;;9.10;4.25;;;;;;;12.69;100.00;95798.06;1027846;28;20106;-51
2021/08/02 00:27:01;;;;;;;6.82;3.60;;;;;;;12.71;100.00;95801.44;1019685;29;20090;-52
2021/08/02 00:27:33;;;;;;;6.15;3.90;;;;;;;12.74;100.00;95802.00;1016057;29;20425;-51
2021/08/02 00:28:03;;;;;;;5.22;3.60;;;;;;;12.77;100.00;95791.25;1024027;28;20031;-51
2021/08/02 00:28:34;;;;;;;6.55;4.05;;;;;;;12.70;100.00;95799.75;1023817;29;20379;-52
2021/08/02 00:29:06;;;;;;;8.20;3.92;;;;;;;12.73;100.00;95797.72;1015775;29;20012;-49
2021/08/02 00:29:37;;;;;;;6.82;3.90;;;;;;;12.76;100.00;95794.00;1023833;29;20067;-50
2021/08/02 00:30:08;;;;;;;5.45;3.85;;;;;;;12.70;100.00;95800.59;1023758;29;20023;-52
2021/08/02 00:30:39;;;;;;;9.52;4.35;;;;;;;12.72;100.00;95800.47;1024314;28;20450;-51
2021/08/02 00:31:09;;;;;;;8.50;3.88;;;;;;;12.72;100.00;95800.47;1027865;28;20026;-51
2021/08/02 00:31:40;;;;;;;7.43;3.75;;;;;;;12.75;100.00;95795.78;1028116;28;20473;-51
2021/08/02 00:32:11;;;;;;;6.32;4.13;;;;;;;12.76;100.00;95801.88;1023843;28;20029;-52
2021/08/02 00:32:41;;;;;;;9.10;3.92;;;;;;;12.69;100.00;95798.94;1027856;28;20022;-51
2021/08/02 00:33:12;;;;;;;7.35;4.10;;;;;;;12.73;100.00;95807.41;1031550;28;20021;-51
2021/08/02 00:33:43;;;;;;;9.07;3.92;;;;;;;12.74;100.00;95803.81;1023293;29;20019;-52
2021/08/02 00:34:14;;;;;;;4.80;3.47;;;;;;;12.71;100.00;95802.28;1027843;28;20014;-52
2021/08/02 00:34:45;;;;;;;6.28;3.85;;;;;;;12.74;100.00;95804.63;1027875;28;20015;-51
2021/08/02 00:35:16;;;;;;;10.18;4.10;;;;;;;12.77;100.00;95804.41;1023915;28;20127;-51
2021/08/02 00:36:01;;;;;;;11.35;4.60;;;;;;;12.76;100.00;95804.50;1028101;28;20018;-51
2021/08/02 00:36:40;;;;;;;6.70;4.15;;;;;;;12.74;100.00;95809.06;1030073;28;20493;-50
2021/08/02 00:37:16;;;;;;;8.95;3.90;;;;;;;12.75;100.00;95808.13;1031045;28;20018;-51
2021/08/02 00:38:07;;;;;;;7.00;3.83;;;;;;;12.75;100.00;95808.94;1031952;28;20018;-51
2021/08/02 00:38:42;;;;;;;6.82;4.30;;;;;;;12.75;100.00;95797.59;1027897;28;20513;-51
2021/08/02 00:39:25;;;;;;;5.70;4.07;;;;;;;12.72;100.00;95809.19;1027607;28;20026;-52
2021/08/02 00:40:03;;;;;;;8.57;4.30;;;;;;;12.71;100.00;95806.69;1023816;28;20027;-52
2021/08/02 00:41:03;;;;;;;7.25;4.20;;;;;;;12.73;100.00;95810.88;1023803;29;20023;-52
2021/08/02 00:41:55;;;;;;;10.70;4.22;;;;;;;12.72;100.00;95811.81;1026000;28;20023;-52
2021/08/02 00:42:41;;;;;;;7.75;3.60;;;;;;;12.70;100.00;95808.47;1029725;28;20348;-51
2021/08/02 00:43:18;;;;;;;6.68;3.90;;;;;;;12.68;100.00;95812.19;1023619;28;20023;-52
2021/08/02 00:44:29;;;;;;;7.05;4.10;;;;;;;12.67;100.00;95808.75;1015273;29;20024;-51
2021/08/02 00:45:10;;;;;;;9.80;4.30;;;;;;;12.66;100.00;95808.84;1015851;29;20582;-51
2021/08/02 00:45:41;;;;;;;8.88;4.30;;;;;;;12.62;100.00;95809.09;1023691;28;20028;-52
2021/08/02 00:46:12;;;;;;;7.75;4.15;;;;;;;12.62;100.00;95809.09;1023881;28;20114;-50
2021/08/02 00:46:48;;;;;;;7.18;3.95;;;;;;;12.62;100.00;95816.97;1023885;28;20094;-52
2021/08/02 00:47:22;;;;;;;11.48;4.70;;;;;;;12.63;100.00;95816.03;1027805;28;20051;-53
2021/08/02 00:48:07;;;;;;;8.20;4.18;;;;;;;12.61;100.00;95810.06;1027479;28;20027;-52
2021/08/02 00:48:48;;;;;;;11.20;4.40;;;;;;;12.66;100.00;95811.50;1027856;28;20543;-51
2021/08/02 00:49:19;;;;;;;9.43;3.70;;;;;;;12.65;100.00;95813.28;1023589;29;20482;-52
2021/08/02 00:50:02;;;;;;;9.52;3.70;;;;;;;12.67;100.00;95800.84;1015734;29;20194;-52
2021/08/02 00:50:38;;;;;;;12.38;4.53;;;;;;;12.68;100.00;95810.41;1019882;29;20059;-51
2021/08/02 00:51:08;;;;;;;6.78;4.50;;;;;;;12.68;100.00;95805.13;1019591;29;20046;-52
2021/08/02 00:51:46;;;;;;;9.20;4.40;;;;;;;12.68;100.00;95812.19;1022298;28;20026;-51
2021/08/02 00:52:19;;;;;;;10.23;4.88;;;;;;;12.67;100.00;95802.63;1019914;29;20542;-51
2021/08/02 00:52:53;;;;;;;9.07;4.32;;;;;;;12.64;100.00;95801.91;1016985;29;20440;-51
2021/08/02 00:53:25;;;;;;;7.68;4.10;;;;;;;12.63;100.00;95807.28;1019653;29;20083;-49
2021/08/02 00:53:58;;;;;;;8.05;4.53;;;;;;;12.63;100.00;95802.03;1012357;29;20032;-51
2021/08/02 00:54:29;;;;;;;10.52;4.82;;;;;;;12.59;100.00;95809.38;1013147;29;20111;-51
2021/08/02 00:55:01;;;;;;;7.57;4.53;;;;;;;12.58;100.00;95807.69;1016026;29;20032;-51
2021/08/02 00:55:34;;;;;;;9.88;4.45;;;;;;;12.60;100.00;95804.94;1016577;29;20414;-49
2021/08/02 00:56:05;;;;;;;9.88;4.40;;;;;;;12.62;100.00;95806.47;1023619;29;20029;-51
2021/08/02 00:56:35;;;;;;;11.95;4.68;;;;;;;12.56;100.00;95809.59;1019778;29;20429;-51
2021/08/02 00:57:06;;;;;;;9.55;4.57;;;;;;;12.56;100.00;95801.72;1019818;29;20427;-50
2021/08/02 00:57:37;;;;;;;15.57;4.80;;;;;;;12.57;100.00;95806.00;1019911;29;20466;-50
2021/08/02 00:58:11;;;;;;;6.07;4.00;;;;;;;12.54;100.00;95801.00;1027495;28;20109;-51
2021/08/02 00:58:41;;;;;;;8.00;4.82;;;;;;;12.54;100.00;95805.44;1019867;29;20106;-51
2021/08/02 00:59:12;;;;;;;13.90;5.13;;;;;;;12.54;100.00;95806.25;1026960;28;20035;-51
2021/08/02 00:59:43;;;;;;;7.18;4.93;;;;;;;12.54;100.00;95808.91;1027793;28;20107;-51
2021/08/02 01:00:16;;;;;;;7.47;4.20;;;;;;;12.55;100.00;95807.09;1019677;29;20027;-51
2021/08/02 01:00:47;;;;;;;10.40;4.88;;;;;;;12.53;100.00;95811.63;1015910;29;20502;-50
2021/08/02 01:01:18;;;;;;;11.43;5.22;;;;;;;12.51;100.00;95809.13;1019696;29;20098;-50
2021/08/02 01:01:48;;;;;;;6.97;4.68;;;;;;;12.53;100.00;95809.00;1020798;28;20020;-51
2021/08/02 01:02:19;;;;;;;7.05;4.28;;;;;;;12.48;100.00;95801.50;1023871;29;20035;-50
2021/08/02 01:02:51;;;;;;;9.32;5.03;;;;;;;12.46;100.00;95803.41;1023716;28;20023;-50
2021/08/02 01:03:22;;;;;;;9.27;5.13;;;;;;;12.49;100.00;95807.59;1015815;29;20031;-51
2021/08/02 01:03:53;;;;;;;10.23;5.05;;;;;;;12.45;100.00;95810.47;1019061;29;20114;-50
2021/08/02 01:04:24;;;;;;;12.80;5.15;;;;;;;12.44;100.00;95806.19;1011936;29;20377;-50
2021/08/02 01:04:54;;;;;;;8.45;5.15;;;;;;;12.40;100.00;95809.16;1015922;29;20399;-50
2021/08/02 01:05:25;;;;;;;9.15;4.97;;;;;;;12.40;100.00;95806.53;1016038;29;20287;-52
2021/08/02 01:05:56;;;;;;;11.32;5.18;;;;;;;12.40;100.00;95803.91;1016032;29;20024;-51
2021/08/02 01:06:31;;;;;;;12.07;5.00;;;;;;;12.37;100.00;95805.00;1035368;28;20022;-51
2021/08/02 01:07:02;;;;;;;14.48;5.72;;;;;;;12.39;100.00;95812.75;1027701;28;20033;-51
2021/08/02 01:07:34;;;;;;;9.40;5.25;;;;;;;12.38;100.00;95803.19;1027823;28;20029;-51
2021/08/02 01:08:07;;;;;;;11.63;5.22;;;;;;;12.33;100.00;95811.44;1027782;28;20505;-51
2021/08/02 01:08:39;;;;;;;10.45;4.90;;;;;;;12.32;100.00;95814.19;1028099;28;20081;-50
2021/08/02 01:09:10;;;;;;;12.70;5.30;;;;;;;12.29;100.00;95815.25;1024494;28;20028;-51
2021/08/02 01:09:42;;;;;;;14.95;5.72;;;;;;;12.30;100.00;95818.75;1027651;28;20121;-50
2021/08/02 01:10:14;;;;;;;12.43;5.90;;;;;;;12.27;100.00;95818.97;1023610;28;20065;-51
2021/08/02 01:10:46;;;;;;;12.50;5.28;;;;;;;12.17;100.00;95803.94;1027554;28;20031;-50
2021/08/02 01:11:17;;;;;;;11.93;5.35;;;;;;;12.20;100.00;95814.22;1023551;29;20026;-51
2021/08/02 01:11:49;;;;;;;9.63;5.90;;;;;;;12.19;100.00;95815.16;1027663;28;20034;-51
2021/08/02 01:12:19;;;;;;;13.60;5.25;;;;;;;12.20;100.00;95824.72;1031512;28;20018;-51
2021/08/02 01:12:53;;;;;;;10.50;5.05;;;;;;;12.19;100.00;95817.78;1027415;28;20053;-50
2021/08/02 01:13:25;;;;;;;13.43;6.03;;;;;;;12.19;100.00;95815.16;1019482;29;20023;-49
2021/08/02 01:13:57;;;;;;;11.73;5.75;;;;;;;12.18;100.00;95818.75;1019393;29;20026;-51
2021/08/02 01:14:27;;;;;;;10.55;5.15;;;;;;;12.19;100.00;95822.22;1028535;28;20094;-51
2021/08/02 01:14:58;;;;;;;14.30;5.53;;;;;;;12.17;100.00;95824.94;1031572;28;20419;-51
2021/08/02 01:15:29;;;;;;;12.05;5.82;;;;;;;12.21;100.00;95825.53;1031643;28;20022;-50
2021/08/02 01:16:02;;;;;;;9.63;5.15;;;;;;;12.18;100.00;95820.53;1019778;29;20028;-52
2021/08/02 01:16:33;;;;;;;9.65;5.60;;;;;;;12.19;100.00;95830.09;1024499;28;20634;-50
2021/08/02 01:17:05;;;;;;;10.40;5.80;;;;;;;12.18;100.00;95820.53;1023625;29;20491;-51
2021/08/02 01:17:35;;;;;;;15.70;6.10;;;;;;;12.15;100.00;95824.25;1027616;28;20022;-50
2021/08/02 01:18:06;;;;;;;13.15;5.80;;;;;;;12.16;100.00;95822.44;1023795;29;20505;-51
2021/08/02 01:18:38;;;;;;;12.90;5.63;;;;;;;12.18;100.00;95831.03;1027656;28;20378;-51
2021/08/02 01:19:09;;;;;;;12.43;5.85;;;;;;;12.17;100.00;95824.13;1019471;29;20046;-51
2021/08/02 01:19:39;;;;;;;15.27;5.75;;;;;;;12.19;100.00;95833.53;1015877;29;20084;-50
2021/08/02 01:20:10;;;;;;;8.88;5.38;;;;;;;12.18;100.00;95831.88;1019855;29;20023;-53
2021/08/02 01:20:43;;;;;;;10.32;5.55;;;;;;;12.18;100.00;95826.63;1019652;29;20020;-50
2021/08/02 01:21:14;;;;;;;15.25;5.90;;;;;;;12.15;100.00;95821.63;1019611;29;20080;-50
2021/08/02 01:21:45;;;;;;;12.32;5.70;;;;;;;12.10;100.00;95826.38;1023638;29;20118;-51
2021/08/02 01:22:17;;;;;;;8.00;5.60;;;;;;;12.10;100.00;95828.19;1027706;28;20536;-50
2021/08/02 01:22:47;;;;;;;12.60;5.70;;;;;;;12.13;100.00;95828.78;1023565;28;20558;-50
2021/08/02 01:23:19;;;;;;;11.65;5.95;;;;;;;12.15;100.00;95832.13;1019526;29;20047;-50
2021/08/02 01:23:50;;;;;;;10.77;5.63;;;;;;;12.15;100.00;95826.03;1019072;29;20064;-50
2021/08/02 01:24:20;;;;;;;11.25;5.75;;;;;;;12.12;100.00;95834.97;1027526;28;20075;-51
2021/08/02 01:24:51;;;;;;;13.52;6.00;;;;;;;12.13;100.00;95827.94;1023751;29;20031;-51
2021/08/02 01:25:37;;;;;;;7.88;5.40;;;;;;;12.18;100.00;95831.03;1019458;29;20188;-50
2021/08/02 01:26:47;;;;;;;21.20;6.65;;;;;;;12.17;100.00;95829.38;1019746;29;20480;-50
2021/08/02 01:27:36;;;;;;;11.45;5.57;;;;;;;12.18;100.00;95825.78;1030403;28;20018;-50
2021/08/02 01:28:41;;;;;;;12.27;5.63;;;;;;;12.19;100.00;95827.47;1027276;28;20065;-50
2021/08/02 01:29:51;;;;;;;10.20;5.47;;;;;;;12.20;100.00;95819.47;1026503;28;20038;-50
2021/08/02 01:30:22;;;;;;;8.32;6.40;;;;;;;12.22;100.00;95821.97;1033703;28;20022;-50
2021/08/02 01:30:54;;;;;;;7.63;5.90;;;;;;;12.22;100.00;95830.69;1037229;28;20049;-52
2021/08/02 01:31:24;;;;;;;10.02;5.63;;;;;;;12.22;100.00;95827.22;1039952;28;20025;-51
2021/08/02 01:31:55;;;;;;;10.73;5.85;;;;;;;12.19;100.00;95820.41;1040106;28;20104;-51
2021/08/02 01:32:26;;;;;;;7.82;5.10;;;;;;;12.21;100.00;95821.13;1040113;28;20155;-51
2021/08/02 01:32:56;;;;;;;10.43;5.45;;;;;;;12.16;100.00;95820.66;1027639;28;20033;-51
2021/08/02 01:33:29;;;;;;;9.82;5.53;;;;;;;12.17;100.00;95818.88;1019242;29;20035;-50
2021/08/02 01:33:59;;;;;;;11.25;5.82;;;;;;;12.17;100.00;95821.50;1015391;29;20036;-51
2021/08/02 01:34:30;;;;;;;11.40;5.90;;;;;;;12.13;100.00;95818.28;1019645;29;20055;-50
2021/08/02 01:35:01;;;;;;;9.43;5.72;;;;;;;12.15;100.00;95826.88;1019782;29;20106;-52
2021/08/02 01:35:32;;;;;;;8.60;6.35;;;;;;;12.12;100.00;95821.84;1019585;29;20019;-50
2021/08/02 01:36:05;;;;;;;8.68;6.00;;;;;;;12.13;100.00;95820.06;1019696;29;20106;-52
2021/08/02 01:36:35;;;;;;;8.68;5.68;;;;;;;12.13;100.00;95823.53;1027517;28;20034;-51
2021/08/02 01:37:06;;;;;;;8.90;5.72;;;;;;;12.13;100.00;95820.91;1027558;28;20100;-50
2021/08/02 01:37:37;;;;;;;10.93;6.18;;;;;;;12.09;100.00;95822.09;1019383;29;20027;-51
2021/08/02 01:38:07;;;;;;;9.88;6.03;;;;;;;12.13;100.00;95822.69;1027720;28;20023;-51
2021/08/02 01:38:38;;;;;;;11.02;6.05;;;;;;;12.10;100.00;95826.38;1023916;28;20164;-50
2021/08/02 01:39:09;;;;;;;8.52;5.82;;;;;;;12.12;100.00;95811.34;1023808;28;20027;-52
2021/08/02 01:39:43;;;;;;;9.88;6.07;;;;;;;12.06;100.00;95811.81;1023377;29;20114;-50
2021/08/02 01:40:14;;;;;;;9.38;6.28;;;;;;;12.14;100.00;95825.19;1019751;29;20020;-50
2021/08/02 01:40:44;;;;;;;9.35;6.13;;;;;;;12.16;100.00;95825.06;1024236;28;20195;-51
2021/08/02 01:41:15;;;;;;;10.85;6.53;;;;;;;12.16;100.00;95818.03;1024928;28;20032;-51
2021/08/02 01:41:46;;;;;;;11.40;6.45;;;;;;;12.16;100.00;95820.66;1027469;28;20396;-51
2021/08/02 01:42:16;;;;;;;12.35;6.30;;;;;;;12.15;100.00;95823.41;1023788;28;20109;-51
2021/08/02 01:42:47;;;;;;;7.97;6.10;;;;;;;12.15;100.00;95821.63;1015679;29;20114;-50
2021/08/02 01:43:18;;;;;;;9.45;5.97;;;;;;;12.12;100.00;95829.72;1023558;29;20474;-50
2021/08/02 01:43:48;;;;;;;10.40;5.90;;;;;;;12.12;100.00;95824.47;1014970;29;20031;-51
2021/08/02 01:44:19;;;;;;;9.95;6.47;;;;;;;12.13;100.00;95820.91;1015614;29;20066;-49
2021/08/02 01:44:50;;;;;;;9.85;6.15;;;;;;;12.12;100.00;95831.53;1019606;29;20110;-50
2021/08/02 01:45:20;;;;;;;10.05;6.13;;;;;;;12.13;100.00;95830.56;1023720;29;20644;-51
2021/08/02 01:45:55;;;;;;;10.50;6.65;;;;;;;12.12;100.00;95832.34;1023643;29;20124;-52
2021/08/02 01:46:44;;;;;;;10.07;6.35;;;;;;;12.10;100.00;95821.13;1023640;29;20019;-51
2021/08/02 01:47:25;;;;;;;11.10;6.78;;;;;;;12.09;100.00;95831.75;1022735;29;20097;-51
2021/08/02 01:48:02;;;;;;;15.00;6.57;;;;;;;12.09;100.00;95829.13;1023552;29;20019;-51
2021/08/02 01:48:52;;;;;;;14.10;6.03;;;;;;;12.08;100.00;95833.53;1023703;29;20039;-50
2021/08/02 01:49:22;;;;;;;10.48;6.57;;;;;;;12.08;100.00;95832.72;1023583;29;20432;-51
2021/08/02 01:49:54;;;;;;;10.52;5.93;;;;;;;12.06;100.00;95831.03;1019517;29;20035;-52
2021/08/02 01:50:28;;;;;;;13.63;6.65;;;;;;;12.06;100.00;95824.97;1019716;29;20034;-52
2021/08/02 01:51:11;;;;;;;9.18;6.03;;;;;;;12.04;100.00;95824.25;1020320;29;20019;-50
2021/08/02 01:51:44;;;;;;;9.30;5.85;;;;;;;12.06;100.00;95832.84;1021978;29;20031;-51
2021/08/02 01:52:19;;;;;;;8.43;6.28;;;;;;;12.06;100.00;95825.78;1019530;29;20028;-50
2021/08/02 01:53:16;;;;;;;14.05;5.90;;;;;;;12.03;100.00;95835.69;1022251;28;20406;-51
2021/08/02 01:54:05;;;;;;;10.27;6.32;;;;;;;12.01;100.00;95834.97;1027184;28;20030;-50
2021/08/02 01:54:54;;;;;;;10.65;6.40;;;;;;;11.99;100.00;95836.88;1027469;28;20030;-51
2021/08/02 01:55:24;;;;;;;13.15;6.82;;;;;;;11.96;100.00;95830.09;1019629;29;20047;-51
2021/08/02 01:56:09;;;;;;;9.77;6.38;;;;;;;11.95;100.00;95830.22;1015657;29;20036;-51
2021/08/02 01:56:51;;;;;;;13.35;6.15;;;;;;;11.95;100.00;95832.84;1015550;29;20521;-50
2021/08/02 01:57:30;;;;;;;9.52;6.20;;;;;;;11.97;100.00;95838.81;1019373;29;20035;-52
2021/08/02 01:58:04;;;;;;;14.68;6.22;;;;;;;11.95;100.00;95838.91;1023540;29;20050;-50
2021/08/02 01:58:44;;;;;;;11.35;6.13;;;;;;;11.92;100.00;95831.28;1026758;28;20015;-51
2021/08/02 01:59:17;;;;;;;9.95;6.63;;;;;;;11.96;100.00;95837.97;1023599;28;20023;-50
2021/08/02 01:59:53;;;;;;;13.18;6.70;;;;;;;11.94;100.00;95831.19;1019480;29;20024;-50
2021/08/02 02:00:23;;;;;;;11.50;6.65;;;;;;;11.94;100.00;95826.75;1019616;29;20020;-51
2021/08/02 02:00:54;;;;;;;11.93;6.85;;;;;;;11.95;100.00;95836.28;1019447;29;20714;-50
2021/08/02 02:01:25;;;;;;;10.10;6.30;;;;;;;11.96;100.00;95837.97;1023613;29;20027;-51
2021/08/02 02:01:58;;;;;;;13.10;7.13;;;;;;;11.93;100.00;95834.75;1023637;28;20078;-50
2021/08/02 02:02:29;;;;;;;11.95;6.28;;;;;;;11.94;100.00;95829.38;1023676;29;20035;-51
2021/08/02 02:03:07;;;;;;;11.00;6.40;;;;;;;11.90;100.00;95832.34;1015469;29;20035;-50
2021/08/02 02:03:38;;;;;;;11.98;6.35;;;;;;;11.92;100.00;95828.66;1018932;29;20012;-50
2021/08/02 02:04:09;;;;;;;9.77;5.93;;;;;;;11.93;100.00;95832.13;1023532;29;20499;-49
2021/08/02 02:04:47;;;;;;;12.65;6.82;;;;;;;11.89;100.00;95839.38;1015618;29;20024;-51
2021/08/02 02:05:19;;;;;;;10.10;6.63;;;;;;;11.91;100.00;95840.13;1015765;29;20056;-50
2021/08/02 02:05:53;;;;;;;10.23;6.40;;;;;;;11.89;100.00;95831.50;1019641;29;20031;-50
2021/08/02 02:06:27;;;;;;;10.93;6.88;;;;;;;11.91;100.00;95837.50;1023123;29;20038;-49
2021/08/02 02:06:59;;;;;;;8.95;6.68;;;;;;;11.91;100.00;95834.84;1024671;28;20034;-51
2021/08/02 02:07:34;;;;;;;14.73;7.07;;;;;;;11.90;100.00;95838.47;1025036;28;20485;-51
2021/08/02 02:08:16;;;;;;;10.23;6.55;;;;;;;11.89;100.00;95833.28;1019496;29;20494;-51
2021/08/02 02:09:05;;;;;;;14.75;7.03;;;;;;;11.90;100.00;95837.59;1021755;29;20091;-50
2021/08/02 02:09:36;;;;;;;11.25;6.30;;;;;;;11.87;100.00;95836.03;1023757;28;20118;-51
2021/08/02 02:10:07;;;;;;;10.13;6.68;;;;;;;11.88;100.00;95832.47;1031549;28;20030;-50
2021/08/02 02:10:39;;;;;;;10.98;6.75;;;;;;;11.85;100.00;95836.13;1030347;28;20014;-51
2021/08/02 02:11:10;;;;;;;10.15;7.20;;;;;;;11.84;100.00;95837.09;1023498;29;20401;-51
2021/08/02 02:11:44;;;;;;;13.48;7.22;;;;;;;11.84;100.00;95838.88;1019979;29;20028;-50
2021/08/02 02:12:14;;;;;;;10.80;6.80;;;;;;;11.84;100.00;95834.47;1027388;28;20054;-51
2021/08/02 02:12:47;;;;;;;10.05;6.82;;;;;;;11.81;100.00;95828.63;1023375;28;20019;-49
2021/08/02 02:13:21;;;;;;;16.98;7.53;;;;;;;11.82;100.00;95836.41;1019420;29;20032;-51
2021/08/02 02:13:53;;;;;;;9.23;6.88;;;;;;;11.83;100.00;95838.06;1018756;29;20032;-50
2021/08/02 02:14:26;;;;;;;10.20;6.53;;;;;;;11.83;100.00;95834.59;1019596;29;20024;-50
2021/08/02 02:14:57;;;;;;;13.23;6.93;;;;;;;11.82;100.00;95831.16;1015628;29;20060;-51
2021/08/02 02:15:28;;;;;;;11.52;7.25;;;;;;;11.78;100.00;95837.56;1023455;29;20126;-51
2021/08/02 02:15:59;;;;;;;11.98;6.90;;;;;;;11.79;100.00;95841.03;1023515;29;20068;-51
2021/08/02 02:16:30;;;;;;;10.98;7.30;;;;;;;11.76;100.00;95842.09;1027454;28;20026;-50
2021/08/02 02:17:01;;;;;;;10.70;6.63;;;;;;;11.77;100.00;95842.94;1023573;29;20512;-52
2021/08/02 02:17:35;;;;;;;11.40;6.75;;;;;;;11.77;100.00;95835.91;1027467;28;20057;-49
2021/08/02 02:18:05;;;;;;;12.02;7.55;;;;;;;11.76;100.00;95836.84;1027507;28;20055;-51
2021/08/02 02:18:38;;;;;;;16.50;7.57;;;;;;;11.77;100.00;95840.31;1019569;29;20623;-51
2021/08/02 02:19:09;;;;;;;9.65;6.75;;;;;;;11.79;100.00;95838.41;1015547;29;20092;-50
2021/08/02 02:19:40;;;;;;;11.30;7.30;;;;;;;11.81;100.00;95837.34;1023360;29;20027;-51
2021/08/02 02:20:12;;;;;;;9.18;6.50;;;;;;;11.81;100.00;95841.75;1027431;28;20058;-52
2021/08/02 02:20:44;;;;;;;12.55;6.82;;;;;;;11.82;100.00;95840.78;1027666;28;20457;-51
2021/08/02 02:21:17;;;;;;;11.00;6.50;;;;;;;11.83;100.00;95840.69;1028157;28;20027;-51
2021/08/02 02:21:49;;;;;;;11.13;6.63;;;;;;;11.81;100.00;95841.75;1028252;28;20470;-51
2021/08/02 02:22:22;;;;;;;16.05;6.93;;;;;;;11.78;100.00;95841.97;1031620;28;20049;-50
2021/08/02 02:22:53;;;;;;;12.27;7.03;;;;;;;11.77;100.00;95841.16;1027659;28;20030;-51
2021/08/02 02:23:23;;;;;;;10.77;6.40;;;;;;;11.80;100.00;95842.69;1024694;28;20457;-51
2021/08/02 02:23:55;;;;;;;10.88;6.63;;;;;;;11.78;100.00;95840.19;1031041;28;20372;-50
2021/08/02 02:24:25;;;;;;;9.57;6.93;;;;;;;11.79;100.00;95836.63;1023869;28;20031;-51
2021/08/02 02:24:56;;;;;;;13.02;6.82;;;;;;;11.80;100.00;95846.16;1027806;28;20029;-51
2021/08/02 02:25:26;;;;;;;10.32;6.88;;;;;;;11.79;100.00;95841.03;1027393;28;20023;-51
2021/08/02 02:25:57;;;;;;;12.10;7.00;;;;;;;11.80;100.00;95845.31;1027378;28;20054;-51
2021/08/02 02:26:31;;;;;;;23.92;7.95;;;;;;;11.82;100.00;95846.91;1027500;28;20027;-51
2021/08/02 02:27:02;;;;;;;11.90;5.85;;;;;;;11.84;100.00;95845.00;1023697;29;20110;-51
2021/08/02 02:27:34;;;;;;;15.05;6.60;;;;;;;11.83;100.00;95845.94;1023377;29;20544;-51
2021/08/02 02:28:05;;;;;;;11.38;7.03;;;;;;;11.80;100.00;95845.31;1027332;28;20031;-52
2021/08/02 02:28:36;;;;;;;11.02;6.88;;;;;;;11.84;100.00;95846.75;1023464;29;20428;-50
2021/08/02 02:29:11;;;;;;;9.35;6.40;;;;;;;11.83;100.00;95848.56;1019498;29;20039;-49
2021/08/02 02:29:41;;;;;;;10.25;6.80;;;;;;;11.82;100.00;95841.66;1027471;28;20021;-51
2021/08/02 02:30:12;;;;;;;9.60;6.32;;;;;;;11.83;100.00;95850.34;1028366;28;20114;-50
2021/08/02 02:30:43;;;;;;;10.98;6.50;;;;;;;11.79;100.00;95843.66;1024278;28;20404;-51
2021/08/02 02:31:14;;;;;;;11.98;7.32;;;;;;;11.76;100.00;95838.66;1019579;29;20035;-50
2021/08/02 02:31:46;;;;;;;12.52;7.55;;;;;;;11.80;100.00;95840.91;1023395;29;20016;-50
2021/08/02 02:32:18;;;;;;;9.80;6.35;;;;;;;11.79;100.00;95844.50;1019713;29;20427;-51
2021/08/02 02:32:48;;;;;;;10.13;6.55;;;;;;;11.81;100.00;95839.97;1023446;28;20051;-51
2021/08/02 02:33:19;;;;;;;11.15;6.63;;;;;;;11.83;100.00;95845.94;1023564;29;20031;-50
2021/08/02 02:33:49;;;;;;;11.65;6.47;;;;;;;11.81;100.00;95836.50;1019137;29;20504;-51
2021/08/02 02:34:20;;;;;;;9.25;6.35;;;;;;;11.81;100.00;95847.84;1019534;29;20028;-51
2021/08/02 02:34:51;;;;;;;9.23;6.25;;;;;;;11.80;100.00;95835.66;1019623;29;20024;-51
2021/08/02 02:35:23;;;;;;;10.63;6.00;;;;;;;11.81;100.00;95849.63;1027415;28;20512;-51
2021/08/02 02:35:53;;;;;;;11.70;6.57;;;;;;;11.81;100.00;95845.22;1023439;29;20418;-50
2021/08/02 02:36:24;;;;;;;11.07;6.13;;;;;;;11.79;100.00;95844.50;1023361;29;20027;-51